sensor_id;sensor_type;location;lat;lon;timestamp;P1;durP1;ratioP1;P2;durP2;ratioP2
69081;SDS011;56184;51.986;5.760;2022-11-22T00:01:01;10.95;;;2.92;;
69081;SDS011;56184;51.986;5.760;2022-11-22T00:03:26;14.75;;;2.97;;
69081;SDS011;56184;51.986;5.760;2022-11-22T00:05:52;10.48;;;2.97;;
69081;SDS011;56184;51.986;5.760;2022-11-22T00:08:18;13.57;;;4.00;;
69081;SDS011;56184;51.986;5.760;2022-11-22T00:10:43;7.00;;;2.90;;
69081;SDS011;56184;51.986;5.760;2022-11-22T00:13:09;9.40;;;2.67;;
69081;SDS011;56184;51.986;5.760;2022-11-22T00:15:34;5.32;;;2.40;;
69081;SDS011;56184;51.986;5.760;2022-11-22T00:18:00;7.90;;;2.80;;
69081;SDS011;56184;51.986;5.760;2022-11-22T00:20:26;7.97;;;2.78;;
69081;SDS011;56184;51.986;5.760;2022-11-22T00:22:51;7.20;;;2.47;;
69081;SDS011;56184;51.986;5.760;2022-11-22T00:25:17;7.90;;;2.53;;
69081;SDS011;56184;51.986;5.760;2022-11-22T00:27:43;6.25;;;2.85;;
69081;SDS011;56184;51.986;5.760;2022-11-22T00:30:09;8.35;;;2.90;;
69081;SDS011;56184;51.986;5.760;2022-11-22T00:32:39;8.38;;;3.00;;
69081;SDS011;56184;51.986;5.760;2022-11-22T00:35:04;10.45;;;3.10;;
69081;SDS011;56184;51.986;5.760;2022-11-22T00:37:30;6.53;;;3.05;;
69081;SDS011;56184;51.986;5.760;2022-11-22T00:39:56;8.18;;;3.10;;
69081;SDS011;56184;51.986;5.760;2022-11-22T00:42:22;13.93;;;3.50;;
69081;SDS011;56184;51.986;5.760;2022-11-22T00:44:47;7.43;;;3.20;;
69081;SDS011;56184;51.986;5.760;2022-11-22T00:47:13;5.82;;;2.92;;
69081;SDS011;56184;51.986;5.760;2022-11-22T00:49:38;10.48;;;3.47;;
69081;SDS011;56184;51.986;5.760;2022-11-22T00:52:04;9.90;;;3.85;;
69081;SDS011;56184;51.986;5.760;2022-11-22T00:54:30;8.35;;;3.58;;
69081;SDS011;56184;51.986;5.760;2022-11-22T00:56:56;12.07;;;3.80;;
69081;SDS011;56184;51.986;5.760;2022-11-22T00:59:21;11.00;;;3.85;;
69081;SDS011;56184;51.986;5.760;2022-11-22T01:01:47;10.38;;;3.78;;
69081;SDS011;56184;51.986;5.760;2022-11-22T01:04:12;13.05;;;4.03;;
69081;SDS011;56184;51.986;5.760;2022-11-22T01:06:38;11.13;;;3.67;;
69081;SDS011;56184;51.986;5.760;2022-11-22T01:09:04;7.72;;;3.53;;
69081;SDS011;56184;51.986;5.760;2022-11-22T01:11:29;12.90;;;3.53;;
69081;SDS011;56184;51.986;5.760;2022-11-22T01:13:55;7.53;;;3.83;;
69081;SDS011;56184;51.986;5.760;2022-11-22T01:16:20;7.53;;;3.40;;
69081;SDS011;56184;51.986;5.760;2022-11-22T01:18:46;9.13;;;3.35;;
69081;SDS011;56184;51.986;5.760;2022-11-22T01:21:12;9.30;;;3.47;;
69081;SDS011;56184;51.986;5.760;2022-11-22T01:23:37;8.63;;;3.53;;
69081;SDS011;56184;51.986;5.760;2022-11-22T01:26:05;8.23;;;3.38;;
69081;SDS011;56184;51.986;5.760;2022-11-22T01:28:32;11.48;;;3.67;;
69081;SDS011;56184;51.986;5.760;2022-11-22T01:30:58;9.05;;;3.40;;
69081;SDS011;56184;51.986;5.760;2022-11-22T01:33:24;7.88;;;3.53;;
69081;SDS011;56184;51.986;5.760;2022-11-22T01:35:49;6.95;;;3.33;;
69081;SDS011;56184;51.986;5.760;2022-11-22T01:38:15;9.07;;;3.58;;
69081;SDS011;56184;51.986;5.760;2022-11-22T01:40:41;8.35;;;3.33;;
69081;SDS011;56184;51.986;5.760;2022-11-22T01:43:26;9.43;;;3.10;;
69081;SDS011;56184;51.986;5.760;2022-11-22T01:45:56;10.05;;;3.38;;
69081;SDS011;56184;51.986;5.760;2022-11-22T01:48:28;8.98;;;3.28;;
69081;SDS011;56184;51.986;5.760;2022-11-22T01:51:05;14.05;;;3.47;;
69081;SDS011;56184;51.986;5.760;2022-11-22T01:53:40;10.02;;;3.28;;
69081;SDS011;56184;51.986;5.760;2022-11-22T01:56:08;7.82;;;3.00;;
69081;SDS011;56184;51.986;5.760;2022-11-22T01:58:36;6.10;;;2.83;;
69081;SDS011;56184;51.986;5.760;2022-11-22T02:01:07;12.88;;;3.45;;
69081;SDS011;56184;51.986;5.760;2022-11-22T02:03:33;8.38;;;3.00;;
69081;SDS011;56184;51.986;5.760;2022-11-22T02:06:02;8.23;;;3.53;;
69081;SDS011;56184;51.986;5.760;2022-11-22T02:08:41;6.80;;;3.10;;
69081;SDS011;56184;51.986;5.760;2022-11-22T02:11:10;9.57;;;3.45;;
69081;SDS011;56184;51.986;5.760;2022-11-22T02:13:38;7.47;;;3.05;;
69081;SDS011;56184;51.986;5.760;2022-11-22T02:16:06;6.60;;;2.72;;
69081;SDS011;56184;51.986;5.760;2022-11-22T02:18:34;10.90;;;3.70;;
69081;SDS011;56184;51.986;5.760;2022-11-22T02:21:00;13.27;;;3.33;;
69081;SDS011;56184;51.986;5.760;2022-11-22T02:26:10;9.68;;;2.90;;
69081;SDS011;56184;51.986;5.760;2022-11-22T02:28:36;11.65;;;3.40;;
69081;SDS011;56184;51.986;5.760;2022-11-22T02:31:04;9.75;;;2.85;;
69081;SDS011;56184;51.986;5.760;2022-11-22T02:33:30;16.20;;;3.10;;
69081;SDS011;56184;51.986;5.760;2022-11-22T02:35:56;10.82;;;2.92;;
69081;SDS011;56184;51.986;5.760;2022-11-22T02:38:25;12.05;;;3.20;;
69081;SDS011;56184;51.986;5.760;2022-11-22T02:40:59;8.75;;;3.05;;
69081;SDS011;56184;51.986;5.760;2022-11-22T02:43:41;9.25;;;3.00;;
69081;SDS011;56184;51.986;5.760;2022-11-22T02:46:11;12.25;;;3.03;;
69081;SDS011;56184;51.986;5.760;2022-11-22T02:48:43;7.15;;;2.80;;
69081;SDS011;56184;51.986;5.760;2022-11-22T02:51:09;12.27;;;3.15;;
69081;SDS011;56184;51.986;5.760;2022-11-22T02:53:35;11.98;;;2.85;;
69081;SDS011;56184;51.986;5.760;2022-11-22T02:56:01;10.05;;;2.85;;
69081;SDS011;56184;51.986;5.760;2022-11-22T02:58:27;9.10;;;2.80;;
69081;SDS011;56184;51.986;5.760;2022-11-22T03:00:52;11.90;;;2.20;;
69081;SDS011;56184;51.986;5.760;2022-11-22T03:03:18;13.77;;;2.53;;
69081;SDS011;56184;51.986;5.760;2022-11-22T03:05:44;10.93;;;2.80;;
69081;SDS011;56184;51.986;5.760;2022-11-22T03:08:09;11.32;;;2.50;;
69081;SDS011;56184;51.986;5.760;2022-11-22T03:10:35;9.95;;;2.45;;
69081;SDS011;56184;51.986;5.760;2022-11-22T03:13:01;10.88;;;2.45;;
69081;SDS011;56184;51.986;5.760;2022-11-22T03:15:27;16.65;;;2.40;;
69081;SDS011;56184;51.986;5.760;2022-11-22T03:17:56;10.05;;;2.05;;
69081;SDS011;56184;51.986;5.760;2022-11-22T03:20:23;11.18;;;1.92;;
69081;SDS011;56184;51.986;5.760;2022-11-22T03:22:49;11.90;;;2.28;;
69081;SDS011;56184;51.986;5.760;2022-11-22T03:25:14;9.50;;;2.05;;
69081;SDS011;56184;51.986;5.760;2022-11-22T03:27:40;11.60;;;2.10;;
69081;SDS011;56184;51.986;5.760;2022-11-22T03:30:05;10.20;;;2.13;;
69081;SDS011;56184;51.986;5.760;2022-11-22T03:32:31;15.45;;;2.00;;
69081;SDS011;56184;51.986;5.760;2022-11-22T03:34:57;14.23;;;1.90;;
69081;SDS011;56184;51.986;5.760;2022-11-22T03:37:22;9.07;;;1.95;;
69081;SDS011;56184;51.986;5.760;2022-11-22T03:39:48;11.23;;;2.40;;
69081;SDS011;56184;51.986;5.760;2022-11-22T03:42:13;14.10;;;2.25;;
69081;SDS011;56184;51.986;5.760;2022-11-22T03:44:39;15.05;;;2.28;;
69081;SDS011;56184;51.986;5.760;2022-11-22T03:47:05;9.95;;;2.15;;
69081;SDS011;56184;51.986;5.760;2022-11-22T03:49:30;10.85;;;1.92;;
69081;SDS011;56184;51.986;5.760;2022-11-22T03:51:56;11.98;;;2.33;;
69081;SDS011;56184;51.986;5.760;2022-11-22T03:54:21;15.82;;;2.85;;
69081;SDS011;56184;51.986;5.760;2022-11-22T03:56:47;12.30;;;2.22;;
69081;SDS011;56184;51.986;5.760;2022-11-22T03:59:13;15.82;;;2.13;;
69081;SDS011;56184;51.986;5.760;2022-11-22T04:01:38;11.93;;;1.90;;
69081;SDS011;56184;51.986;5.760;2022-11-22T04:04:04;15.57;;;2.00;;
69081;SDS011;56184;51.986;5.760;2022-11-22T04:06:29;9.48;;;1.88;;
69081;SDS011;56184;51.986;5.760;2022-11-22T04:08:55;8.88;;;1.77;;
69081;SDS011;56184;51.986;5.760;2022-11-22T04:11:20;15.23;;;2.33;;
69081;SDS011;56184;51.986;5.760;2022-11-22T04:13:46;14.00;;;1.73;;
69081;SDS011;56184;51.986;5.760;2022-11-22T04:16:30;9.90;;;2.03;;
69081;SDS011;56184;51.986;5.760;2022-11-22T04:19:00;13.38;;;1.90;;
69081;SDS011;56184;51.986;5.760;2022-11-22T04:21:27;13.70;;;2.20;;
69081;SDS011;56184;51.986;5.760;2022-11-22T04:23:58;13.25;;;1.83;;
69081;SDS011;56184;51.986;5.760;2022-11-22T04:26:47;18.67;;;2.63;;
69081;SDS011;56184;51.986;5.760;2022-11-22T04:29:13;10.77;;;2.10;;
69081;SDS011;56184;51.986;5.760;2022-11-22T04:31:39;14.05;;;1.73;;
69081;SDS011;56184;51.986;5.760;2022-11-22T04:34:24;13.10;;;1.77;;
69081;SDS011;56184;51.986;5.760;2022-11-22T04:36:49;13.48;;;2.00;;
69081;SDS011;56184;51.986;5.760;2022-11-22T04:39:15;15.32;;;1.88;;
69081;SDS011;56184;51.986;5.760;2022-11-22T04:41:40;9.82;;;2.05;;
69081;SDS011;56184;51.986;5.760;2022-11-22T04:44:07;13.32;;;1.95;;
69081;SDS011;56184;51.986;5.760;2022-11-22T04:46:52;13.32;;;2.00;;
69081;SDS011;56184;51.986;5.760;2022-11-22T04:49:18;14.57;;;2.20;;
69081;SDS011;56184;51.986;5.760;2022-11-22T04:51:43;12.90;;;2.05;;
69081;SDS011;56184;51.986;5.760;2022-11-22T04:54:27;11.77;;;1.80;;
69081;SDS011;56184;51.986;5.760;2022-11-22T04:56:53;8.65;;;1.63;;
69081;SDS011;56184;51.986;5.760;2022-11-22T04:59:18;13.77;;;2.33;;
69081;SDS011;56184;51.986;5.760;2022-11-22T05:01:44;8.98;;;2.17;;
69081;SDS011;56184;51.986;5.760;2022-11-22T05:04:10;11.80;;;1.58;;
69081;SDS011;56184;51.986;5.760;2022-11-22T05:06:35;12.85;;;1.98;;
69081;SDS011;56184;51.986;5.760;2022-11-22T05:09:01;7.90;;;1.38;;
69081;SDS011;56184;51.986;5.760;2022-11-22T05:11:27;9.80;;;2.10;;
69081;SDS011;56184;51.986;5.760;2022-11-22T05:13:53;8.50;;;1.92;;
69081;SDS011;56184;51.986;5.760;2022-11-22T05:16:18;13.55;;;1.92;;
69081;SDS011;56184;51.986;5.760;2022-11-22T05:18:44;13.82;;;2.00;;
69081;SDS011;56184;51.986;5.760;2022-11-22T05:21:23;12.52;;;1.90;;
69081;SDS011;56184;51.986;5.760;2022-11-22T05:23:50;9.70;;;1.95;;
69081;SDS011;56184;51.986;5.760;2022-11-22T05:26:19;11.98;;;1.90;;
69081;SDS011;56184;51.986;5.760;2022-11-22T05:28:51;5.72;;;1.48;;
69081;SDS011;56184;51.986;5.760;2022-11-22T05:31:18;11.02;;;1.70;;
69081;SDS011;56184;51.986;5.760;2022-11-22T05:33:48;13.00;;;1.85;;
69081;SDS011;56184;51.986;5.760;2022-11-22T05:36:15;8.30;;;1.83;;
69081;SDS011;56184;51.986;5.760;2022-11-22T05:38:41;10.82;;;2.20;;
69081;SDS011;56184;51.986;5.760;2022-11-22T05:41:08;13.38;;;2.97;;
69081;SDS011;56184;51.986;5.760;2022-11-22T05:43:35;11.73;;;2.15;;
69081;SDS011;56184;51.986;5.760;2022-11-22T05:46:07;11.05;;;1.50;;
69081;SDS011;56184;51.986;5.760;2022-11-22T05:48:38;13.45;;;1.90;;
69081;SDS011;56184;51.986;5.760;2022-11-22T05:51:06;12.52;;;1.60;;
69081;SDS011;56184;51.986;5.760;2022-11-22T05:53:34;10.85;;;2.00;;
69081;SDS011;56184;51.986;5.760;2022-11-22T05:56:04;11.68;;;2.20;;
69081;SDS011;56184;51.986;5.760;2022-11-22T05:58:34;16.52;;;1.95;;
69081;SDS011;56184;51.986;5.760;2022-11-22T06:01:04;18.35;;;2.67;;
69081;SDS011;56184;51.986;5.760;2022-11-22T06:03:30;9.32;;;1.92;;
69081;SDS011;56184;51.986;5.760;2022-11-22T06:05:56;14.43;;;1.88;;
69081;SDS011;56184;51.986;5.760;2022-11-22T06:08:22;13.00;;;1.98;;
69081;SDS011;56184;51.986;5.760;2022-11-22T06:10:48;13.77;;;2.70;;
69081;SDS011;56184;51.986;5.760;2022-11-22T06:13:13;12.80;;;2.63;;
69081;SDS011;56184;51.986;5.760;2022-11-22T06:15:39;11.57;;;2.17;;
69081;SDS011;56184;51.986;5.760;2022-11-22T06:18:04;6.57;;;1.52;;
69081;SDS011;56184;51.986;5.760;2022-11-22T06:20:30;8.52;;;1.65;;
69081;SDS011;56184;51.986;5.760;2022-11-22T06:23:02;11.48;;;1.58;;
69081;SDS011;56184;51.986;5.760;2022-11-22T06:25:27;11.13;;;2.00;;
69081;SDS011;56184;51.986;5.760;2022-11-22T06:27:56;18.42;;;2.22;;
69081;SDS011;56184;51.986;5.760;2022-11-22T06:30:22;11.13;;;1.58;;
69081;SDS011;56184;51.986;5.760;2022-11-22T06:32:48;10.63;;;1.92;;
69081;SDS011;56184;51.986;5.760;2022-11-22T06:35:14;9.57;;;1.85;;
69081;SDS011;56184;51.986;5.760;2022-11-22T06:37:39;6.70;;;1.88;;
69081;SDS011;56184;51.986;5.760;2022-11-22T06:40:05;10.77;;;1.85;;
69081;SDS011;56184;51.986;5.760;2022-11-22T06:42:35;10.35;;;1.58;;
69081;SDS011;56184;51.986;5.760;2022-11-22T06:45:01;7.20;;;1.70;;
69081;SDS011;56184;51.986;5.760;2022-11-22T06:47:26;10.90;;;1.73;;
69081;SDS011;56184;51.986;5.760;2022-11-22T06:49:52;9.07;;;1.73;;
69081;SDS011;56184;51.986;5.760;2022-11-22T06:52:17;6.95;;;1.25;;
69081;SDS011;56184;51.986;5.760;2022-11-22T06:54:43;13.18;;;1.95;;
69081;SDS011;56184;51.986;5.760;2022-11-22T06:57:11;9.63;;;1.60;;
69081;SDS011;56184;51.986;5.760;2022-11-22T06:59:37;5.95;;;1.60;;
69081;SDS011;56184;51.986;5.760;2022-11-22T07:02:03;9.27;;;1.65;;
69081;SDS011;56184;51.986;5.760;2022-11-22T07:04:28;11.30;;;1.90;;
69081;SDS011;56184;51.986;5.760;2022-11-22T07:06:54;7.90;;;1.75;;
69081;SDS011;56184;51.986;5.760;2022-11-22T07:09:19;7.45;;;1.90;;
69081;SDS011;56184;51.986;5.760;2022-11-22T07:11:45;8.23;;;1.85;;
69081;SDS011;56184;51.986;5.760;2022-11-22T07:14:10;14.13;;;2.15;;
69081;SDS011;56184;51.986;5.760;2022-11-22T07:16:37;10.98;;;1.55;;
69081;SDS011;56184;51.986;5.760;2022-11-22T07:19:03;13.10;;;1.70;;
69081;SDS011;56184;51.986;5.760;2022-11-22T07:21:29;7.50;;;1.75;;
69081;SDS011;56184;51.986;5.760;2022-11-22T07:23:56;21.52;;;2.03;;
69081;SDS011;56184;51.986;5.760;2022-11-22T07:26:22;10.60;;;1.50;;
69081;SDS011;56184;51.986;5.760;2022-11-22T07:28:49;8.07;;;1.55;;
69081;SDS011;56184;51.986;5.760;2022-11-22T07:31:15;5.85;;;1.65;;
69081;SDS011;56184;51.986;5.760;2022-11-22T07:33:42;10.27;;;1.90;;
69081;SDS011;56184;51.986;5.760;2022-11-22T07:38:36;5.13;;;1.55;;
69081;SDS011;56184;51.986;5.760;2022-11-22T07:41:02;12.98;;;1.90;;
69081;SDS011;56184;51.986;5.760;2022-11-22T07:43:28;6.18;;;1.60;;
69081;SDS011;56184;51.986;5.760;2022-11-22T07:45:57;12.60;;;1.60;;
69081;SDS011;56184;51.986;5.760;2022-11-22T07:48:27;8.57;;;1.65;;
69081;SDS011;56184;51.986;5.760;2022-11-22T07:50:52;12.05;;;2.03;;
69081;SDS011;56184;51.986;5.760;2022-11-22T07:53:18;12.65;;;2.10;;
69081;SDS011;56184;51.986;5.760;2022-11-22T07:55:44;9.48;;;1.77;;
69081;SDS011;56184;51.986;5.760;2022-11-22T07:58:09;9.90;;;1.98;;
69081;SDS011;56184;51.986;5.760;2022-11-22T08:00:35;10.15;;;1.85;;
69081;SDS011;56184;51.986;5.760;2022-11-22T08:03:00;10.45;;;1.83;;
69081;SDS011;56184;51.986;5.760;2022-11-22T08:05:26;13.70;;;2.25;;
69081;SDS011;56184;51.986;5.760;2022-11-22T08:07:52;13.20;;;2.03;;
69081;SDS011;56184;51.986;5.760;2022-11-22T08:10:18;12.10;;;2.20;;
69081;SDS011;56184;51.986;5.760;2022-11-22T08:12:45;15.38;;;2.28;;
69081;SDS011;56184;51.986;5.760;2022-11-22T08:15:11;11.40;;;1.90;;
69081;SDS011;56184;51.986;5.760;2022-11-22T08:17:39;11.65;;;1.90;;
69081;SDS011;56184;51.986;5.760;2022-11-22T08:20:05;11.98;;;2.15;;
69081;SDS011;56184;51.986;5.760;2022-11-22T08:22:33;16.40;;;2.33;;
69081;SDS011;56184;51.986;5.760;2022-11-22T08:24:59;7.43;;;1.80;;
69081;SDS011;56184;51.986;5.760;2022-11-22T08:27:24;9.70;;;2.13;;
69081;SDS011;56184;51.986;5.760;2022-11-22T08:29:50;13.52;;;2.17;;
69081;SDS011;56184;51.986;5.760;2022-11-22T08:32:16;10.13;;;2.33;;
69081;SDS011;56184;51.986;5.760;2022-11-22T08:34:41;9.18;;;2.00;;
69081;SDS011;56184;51.986;5.760;2022-11-22T08:37:07;11.77;;;2.08;;
69081;SDS011;56184;51.986;5.760;2022-11-22T08:39:32;10.43;;;2.40;;
69081;SDS011;56184;51.986;5.760;2022-11-22T08:41:58;10.85;;;2.45;;
69081;SDS011;56184;51.986;5.760;2022-11-22T08:44:23;8.25;;;1.90;;
69081;SDS011;56184;51.986;5.760;2022-11-22T08:46:49;8.43;;;1.58;;
69081;SDS011;56184;51.986;5.760;2022-11-22T08:49:15;13.43;;;2.35;;
69081;SDS011;56184;51.986;5.760;2022-11-22T08:51:40;9.55;;;1.60;;
69081;SDS011;56184;51.986;5.760;2022-11-22T08:54:12;9.95;;;1.75;;
69081;SDS011;56184;51.986;5.760;2022-11-22T08:56:38;6.70;;;1.98;;
69081;SDS011;56184;51.986;5.760;2022-11-22T08:59:04;8.18;;;1.98;;
69081;SDS011;56184;51.986;5.760;2022-11-22T09:01:30;12.75;;;1.85;;
69081;SDS011;56184;51.986;5.760;2022-11-22T09:03:56;9.70;;;1.63;;
69081;SDS011;56184;51.986;5.760;2022-11-22T09:06:22;7.32;;;1.77;;
69081;SDS011;56184;51.986;5.760;2022-11-22T09:08:47;10.55;;;2.03;;
69081;SDS011;56184;51.986;5.760;2022-11-22T09:11:14;7.68;;;1.90;;
69081;SDS011;56184;51.986;5.760;2022-11-22T09:13:41;6.97;;;1.50;;
69081;SDS011;56184;51.986;5.760;2022-11-22T09:16:08;4.70;;;1.50;;
69081;SDS011;56184;51.986;5.760;2022-11-22T09:18:35;9.93;;;2.22;;
69081;SDS011;56184;51.986;5.760;2022-11-22T09:21:05;9.77;;;2.00;;
69081;SDS011;56184;51.986;5.760;2022-11-22T09:23:45;9.48;;;1.67;;
69081;SDS011;56184;51.986;5.760;2022-11-22T09:26:17;6.28;;;1.80;;
69081;SDS011;56184;51.986;5.760;2022-11-22T09:28:44;6.03;;;1.48;;
69081;SDS011;56184;51.986;5.760;2022-11-22T09:31:11;7.85;;;1.60;;
69081;SDS011;56184;51.986;5.760;2022-11-22T09:33:38;9.40;;;1.60;;
69081;SDS011;56184;51.986;5.760;2022-11-22T09:36:09;8.90;;;2.55;;
69081;SDS011;56184;51.986;5.760;2022-11-22T09:38:36;9.50;;;1.90;;
69081;SDS011;56184;51.986;5.760;2022-11-22T09:47:13;7.30;;;1.75;;
69081;SDS011;56184;51.986;5.760;2022-11-22T09:49:57;7.65;;;1.80;;
69081;SDS011;56184;51.986;5.760;2022-11-22T09:52:37;10.80;;;1.85;;
69081;SDS011;56184;51.986;5.760;2022-11-22T09:57:46;5.78;;;1.75;;
69081;SDS011;56184;51.986;5.760;2022-11-22T10:00:22;4.88;;;1.65;;
69081;SDS011;56184;51.986;5.760;2022-11-22T10:05:33;8.52;;;1.63;;
69081;SDS011;56184;51.986;5.760;2022-11-22T10:08:42;15.65;;;1.73;;
69081;SDS011;56184;51.986;5.760;2022-11-22T10:11:44;4.95;;;1.80;;
69081;SDS011;56184;51.986;5.760;2022-11-22T10:22:46;7.13;;;1.63;;
69081;SDS011;56184;51.986;5.760;2022-11-22T10:25:14;5.22;;;1.70;;
69081;SDS011;56184;51.986;5.760;2022-11-22T10:27:47;8.70;;;1.75;;
69081;SDS011;56184;51.986;5.760;2022-11-22T10:30:21;6.00;;;2.03;;
69081;SDS011;56184;51.986;5.760;2022-11-22T10:32:54;11.98;;;1.77;;
69081;SDS011;56184;51.986;5.760;2022-11-22T10:35:50;10.05;;;1.83;;
69081;SDS011;56184;51.986;5.760;2022-11-22T10:38:26;5.38;;;1.40;;
69081;SDS011;56184;51.986;5.760;2022-11-22T10:54:30;7.22;;;1.90;;
69081;SDS011;56184;51.986;5.760;2022-11-22T11:04:59;8.20;;;1.60;;
69081;SDS011;56184;51.986;5.760;2022-11-22T11:07:30;9.57;;;1.83;;
69081;SDS011;56184;51.986;5.760;2022-11-22T11:09:57;5.40;;;1.50;;
69081;SDS011;56184;51.986;5.760;2022-11-22T11:12:37;6.80;;;1.55;;
69081;SDS011;56184;51.986;5.760;2022-11-22T11:15:58;4.93;;;1.67;;
69081;SDS011;56184;51.986;5.760;2022-11-22T11:18:22;6.22;;;1.40;;
69081;SDS011;56184;51.986;5.760;2022-11-22T11:21:00;9.50;;;1.58;;
69081;SDS011;56184;51.986;5.760;2022-11-22T11:23:25;3.75;;;1.30;;
69081;SDS011;56184;51.986;5.760;2022-11-22T11:25:51;4.43;;;1.20;;
69081;SDS011;56184;51.986;5.760;2022-11-22T11:30:47;2.78;;;1.10;;
69081;SDS011;56184;51.986;5.760;2022-11-22T11:33:27;3.92;;;1.20;;
69081;SDS011;56184;51.986;5.760;2022-11-22T11:35:55;3.75;;;1.20;;
69081;SDS011;56184;51.986;5.760;2022-11-22T11:38:30;2.08;;;1.20;;
69081;SDS011;56184;51.986;5.760;2022-11-22T11:41:14;2.33;;;1.27;;
69081;SDS011;56184;51.986;5.760;2022-11-22T11:43:48;5.22;;;1.85;;
69081;SDS011;56184;51.986;5.760;2022-11-22T11:46:16;5.45;;;1.73;;
69081;SDS011;56184;51.986;5.760;2022-11-22T11:48:47;6.30;;;3.13;;
69081;SDS011;56184;51.986;5.760;2022-11-22T11:53:49;3.55;;;1.55;;
69081;SDS011;56184;51.986;5.760;2022-11-22T11:56:44;4.75;;;1.38;;
69081;SDS011;56184;51.986;5.760;2022-11-22T11:59:20;7.07;;;1.52;;
69081;SDS011;56184;51.986;5.760;2022-11-22T12:01:49;8.93;;;2.35;;
69081;SDS011;56184;51.986;5.760;2022-11-22T12:04:19;3.58;;;1.60;;
69081;SDS011;56184;51.986;5.760;2022-11-22T12:06:53;4.95;;;1.60;;
69081;SDS011;56184;51.986;5.760;2022-11-22T12:09:28;2.60;;;1.10;;
69081;SDS011;56184;51.986;5.760;2022-11-22T12:12:11;5.18;;;1.63;;
69081;SDS011;56184;51.986;5.760;2022-11-22T12:14:40;1.55;;;1.08;;
69081;SDS011;56184;51.986;5.760;2022-11-22T12:17:11;5.40;;;1.60;;
69081;SDS011;56184;51.986;5.760;2022-11-22T12:19:51;4.90;;;1.90;;
69081;SDS011;56184;51.986;5.760;2022-11-22T12:30:45;3.13;;;1.20;;
69081;SDS011;56184;51.986;5.760;2022-11-22T12:33:18;4.47;;;1.60;;
69081;SDS011;56184;51.986;5.760;2022-11-22T12:35:48;2.20;;;1.10;;
69081;SDS011;56184;51.986;5.760;2022-11-22T12:38:24;2.63;;;1.20;;
69081;SDS011;56184;51.986;5.760;2022-11-22T12:40:56;1.73;;;1.00;;
69081;SDS011;56184;51.986;5.760;2022-11-22T12:43:29;3.40;;;0.80;;
69081;SDS011;56184;51.986;5.760;2022-11-22T12:46:10;1.33;;;0.75;;
69081;SDS011;56184;51.986;5.760;2022-11-22T12:48:43;5.68;;;0.80;;
69081;SDS011;56184;51.986;5.760;2022-11-22T12:51:14;2.50;;;0.95;;
69081;SDS011;56184;51.986;5.760;2022-11-22T12:53:43;2.40;;;0.93;;
69081;SDS011;56184;51.986;5.760;2022-11-22T13:04:29;2.05;;;1.00;;
69081;SDS011;56184;51.986;5.760;2022-11-22T13:07:14;1.95;;;0.70;;
69081;SDS011;56184;51.986;5.760;2022-11-22T13:09:59;1.45;;;0.80;;
69081;SDS011;56184;51.986;5.760;2022-11-22T13:15:01;1.73;;;0.80;;
69081;SDS011;56184;51.986;5.760;2022-11-22T13:17:31;3.22;;;0.98;;
69081;SDS011;56184;51.986;5.760;2022-11-22T13:20:07;1.42;;;0.80;;
69081;SDS011;56184;51.986;5.760;2022-11-22T13:25:31;2.17;;;0.70;;
69081;SDS011;56184;51.986;5.760;2022-11-22T13:28:19;3.83;;;0.80;;
69081;SDS011;56184;51.986;5.760;2022-11-22T13:33:31;2.92;;;2.30;;
69081;SDS011;56184;51.986;5.760;2022-11-22T13:38:51;2.10;;;0.70;;
69081;SDS011;56184;51.986;5.760;2022-11-22T13:43:51;1.13;;;0.70;;
69081;SDS011;56184;51.986;5.760;2022-11-22T13:49:43;1.20;;;0.80;;
69081;SDS011;56184;51.986;5.760;2022-11-22T14:05:37;2.10;;;1.20;;
69081;SDS011;56184;51.986;5.760;2022-11-22T14:08:03;1.48;;;1.38;;
69081;SDS011;56184;51.986;5.760;2022-11-22T14:10:31;1.48;;;1.20;;
69081;SDS011;56184;51.986;5.760;2022-11-22T14:13:03;2.05;;;0.98;;
69081;SDS011;56184;51.986;5.760;2022-11-22T14:18:27;4.22;;;1.25;;
69081;SDS011;56184;51.986;5.760;2022-11-22T14:26:57;7.05;;;3.10;;
69081;SDS011;56184;51.986;5.760;2022-11-22T14:29:41;5.10;;;3.00;;
69081;SDS011;56184;51.986;5.760;2022-11-22T14:32:38;2.45;;;1.85;;
69081;SDS011;56184;51.986;5.760;2022-11-22T14:35:27;2.55;;;1.13;;
69081;SDS011;56184;51.986;5.760;2022-11-22T14:38:43;1.83;;;1.42;;
69081;SDS011;56184;51.986;5.760;2022-11-22T14:40:46;3.55;;;1.48;;
69081;SDS011;56184;51.986;5.760;2022-11-22T14:43:25;2.92;;;1.35;;
69081;SDS011;56184;51.986;5.760;2022-11-22T14:46:15;2.20;;;1.27;;
69081;SDS011;56184;51.986;5.760;2022-11-22T14:48:51;2.95;;;1.90;;
69081;SDS011;56184;51.986;5.760;2022-11-22T14:51:24;2.30;;;1.60;;
69081;SDS011;56184;51.986;5.760;2022-11-22T14:53:53;5.32;;;1.52;;
69081;SDS011;56184;51.986;5.760;2022-11-22T15:08:14;1.80;;;1.25;;
69081;SDS011;56184;51.986;5.760;2022-11-22T15:11:02;1.70;;;1.48;;
69081;SDS011;56184;51.986;5.760;2022-11-22T15:17:14;1.27;;;1.08;;
69081;SDS011;56184;51.986;5.760;2022-11-22T15:19:42;4.85;;;2.50;;
69081;SDS011;56184;51.986;5.760;2022-11-22T15:22:11;3.28;;;1.67;;
69081;SDS011;56184;51.986;5.760;2022-11-22T15:24:52;3.58;;;1.17;;
69081;SDS011;56184;51.986;5.760;2022-11-22T15:27:20;1.45;;;1.00;;
69081;SDS011;56184;51.986;5.760;2022-11-22T15:29:46;2.88;;;1.13;;
69081;SDS011;56184;51.986;5.760;2022-11-22T15:32:14;2.08;;;1.00;;
69081;SDS011;56184;51.986;5.760;2022-11-22T15:34:44;1.00;;;0.90;;
69081;SDS011;56184;51.986;5.760;2022-11-22T15:37:24;2.80;;;1.20;;
69081;SDS011;56184;51.986;5.760;2022-11-22T15:40:05;0.82;;;0.80;;
69081;SDS011;56184;51.986;5.760;2022-11-22T15:42:37;7.90;;;0.98;;
69081;SDS011;56184;51.986;5.760;2022-11-22T15:45:15;1.55;;;1.10;;
69081;SDS011;56184;51.986;5.760;2022-11-22T15:47:43;4.07;;;2.40;;
69081;SDS011;56184;51.986;5.760;2022-11-22T15:50:14;1.73;;;1.25;;
69081;SDS011;56184;51.986;5.760;2022-11-22T15:52:41;1.75;;;1.27;;
69081;SDS011;56184;51.986;5.760;2022-11-22T15:55:16;0.90;;;0.65;;
69081;SDS011;56184;51.986;5.760;2022-11-22T15:57:43;0.80;;;0.80;;
69081;SDS011;56184;51.986;5.760;2022-11-22T16:00:26;2.45;;;0.88;;
69081;SDS011;56184;51.986;5.760;2022-11-22T16:02:57;1.50;;;1.05;;
69081;SDS011;56184;51.986;5.760;2022-11-22T16:05:31;2.38;;;0.90;;
69081;SDS011;56184;51.986;5.760;2022-11-22T16:08:01;1.25;;;0.85;;
69081;SDS011;56184;51.986;5.760;2022-11-22T16:10:38;2.53;;;1.70;;
69081;SDS011;56184;51.986;5.760;2022-11-22T16:13:20;1.90;;;1.27;;
69081;SDS011;56184;51.986;5.760;2022-11-22T16:18:40;2.30;;;1.52;;
69081;SDS011;56184;51.986;5.760;2022-11-22T16:23:36;4.53;;;1.88;;
69081;SDS011;56184;51.986;5.760;2022-11-22T16:28:43;1.83;;;1.23;;
69081;SDS011;56184;51.986;5.760;2022-11-22T16:31:20;3.05;;;1.50;;
69081;SDS011;56184;51.986;5.760;2022-11-22T16:33:51;1.73;;;1.60;;
69081;SDS011;56184;51.986;5.760;2022-11-22T16:36:18;4.00;;;2.88;;
69081;SDS011;56184;51.986;5.760;2022-11-22T16:38:45;3.35;;;2.65;;
69081;SDS011;56184;51.986;5.760;2022-11-22T16:41:23;4.28;;;2.78;;
69081;SDS011;56184;51.986;5.760;2022-11-22T16:43:51;3.45;;;2.10;;
69081;SDS011;56184;51.986;5.760;2022-11-22T16:46:24;3.58;;;2.22;;
69081;SDS011;56184;51.986;5.760;2022-11-22T16:48:50;4.65;;;3.80;;
69081;SDS011;56184;51.986;5.760;2022-11-22T16:51:16;5.55;;;2.70;;
69081;SDS011;56184;51.986;5.760;2022-11-22T16:53:47;6.47;;;4.18;;
69081;SDS011;56184;51.986;5.760;2022-11-22T16:56:16;3.83;;;3.30;;
69081;SDS011;56184;51.986;5.760;2022-11-22T16:58:53;2.97;;;2.30;;
69081;SDS011;56184;51.986;5.760;2022-11-22T17:01:21;5.20;;;2.97;;
69081;SDS011;56184;51.986;5.760;2022-11-22T17:03:50;8.98;;;5.40;;
69081;SDS011;56184;51.986;5.760;2022-11-22T17:06:19;8.68;;;5.85;;
69081;SDS011;56184;51.986;5.760;2022-11-22T17:08:50;14.32;;;8.57;;